createdAt,value
2022-11-14T00:00:59.083Z,16.30
2022-11-14T00:03:25.895Z,17.15
2022-11-14T00:05:52.668Z,18.65
2022-11-14T00:08:25.408Z,16.42
2022-11-14T00:10:52.623Z,20.63
2022-11-14T00:13:20.602Z,17.38
2022-11-14T00:15:54.341Z,17.40
2022-11-14T00:18:21.842Z,13.85
2022-11-14T00:20:50.289Z,17.10
2022-11-14T00:23:17.205Z,15.52
2022-11-14T00:25:47.394Z,14.70
2022-11-14T00:28:14.681Z,16.20
2022-11-14T00:30:41.541Z,14.80
2022-11-14T00:33:08.421Z,15.82
2022-11-14T00:35:35.277Z,16.25
2022-11-14T00:38:02.171Z,15.82
2022-11-14T00:40:29.010Z,15.80
2022-11-14T00:42:55.820Z,14.93
2022-11-14T00:45:22.708Z,16.10
2022-11-14T00:47:49.534Z,15.20
2022-11-14T00:50:17.198Z,13.75
2022-11-14T00:52:44.225Z,13.93
2022-11-14T00:55:11.172Z,14.40
2022-11-14T00:57:37.945Z,15.38
2022-11-14T01:00:06.136Z,17.02
2022-11-14T01:02:33.117Z,17.60
2022-11-14T01:05:00.648Z,16.23
2022-11-14T01:07:27.659Z,17.27
2022-11-14T01:09:54.463Z,16.73
2022-11-14T01:12:21.295Z,17.00
2022-11-14T01:14:48.261Z,15.43
2022-11-14T01:17:15.127Z,16.50
2022-11-14T01:19:41.962Z,16.85
2022-11-14T01:22:08.825Z,19.77
2022-11-14T01:24:35.756Z,16.05
2022-11-14T01:27:02.595Z,17.10
2022-11-14T01:29:29.790Z,21.05
2022-11-14T01:31:56.777Z,17.70
2022-11-14T01:34:24.042Z,17.25
2022-11-14T01:36:50.993Z,16.23
2022-11-14T01:39:17.837Z,16.80
2022-11-14T01:41:44.650Z,14.75
2022-11-14T01:44:38.286Z,15.30
2022-11-14T01:47:06.162Z,17.80
2022-11-14T01:49:45.877Z,15.68
2022-11-14T01:52:19.877Z,14.82
2022-11-14T01:54:50.006Z,17.20
2022-11-14T01:57:22.588Z,13.27
2022-11-14T01:59:53.613Z,14.65
2022-11-14T02:02:25.433Z,13.70
2022-11-14T02:05:05.788Z,12.80
2022-11-14T02:07:36.944Z,15.57
2022-11-14T02:10:11.355Z,13.77
2022-11-14T02:12:38.517Z,15.15
2022-11-14T02:15:05.765Z,14.73
2022-11-14T02:17:33.023Z,15.00
2022-11-14T02:20:12.388Z,14.55
2022-11-14T02:22:41.036Z,12.18
2022-11-14T02:25:12.359Z,14.15
2022-11-14T02:27:40.303Z,12.25
2022-11-14T02:30:10.791Z,10.23
2022-11-14T02:33:08.811Z,12.05
2022-11-14T02:35:25.026Z,10.30
2022-11-14T02:37:51.823Z,9.30
2022-11-14T02:40:18.849Z,10.77
2022-11-14T02:42:45.690Z,9.70
2022-11-14T02:45:13.411Z,11.35
2022-11-14T02:47:40.206Z,10.05
2022-11-14T02:50:07.357Z,9.75
2022-11-14T02:52:34.174Z,9.43
2022-11-14T02:55:01.043Z,9.75
2022-11-14T02:57:27.838Z,10.35
2022-11-14T02:59:54.647Z,11.48
2022-11-14T03:02:21.443Z,10.63
2022-11-14T03:04:48.253Z,10.90
2022-11-14T03:07:15.332Z,10.52
2022-11-14T03:09:42.166Z,10.80
2022-11-14T03:12:09.741Z,10.10
2022-11-14T03:14:36.648Z,9.18
2022-11-14T03:17:03.753Z,11.00
2022-11-14T03:19:30.577Z,9.98
2022-11-14T03:21:57.399Z,10.85
2022-11-14T03:24:24.224Z,10.20
2022-11-14T03:26:51.130Z,10.45
2022-11-14T03:29:17.964Z,10.90
2022-11-14T03:31:44.957Z,10.13
2022-11-14T03:34:11.792Z,12.32
2022-11-14T03:36:38.667Z,10.93
2022-11-14T03:39:05.942Z,10.15
2022-11-14T03:41:32.814Z,9.30
2022-11-14T03:43:59.706Z,10.13
2022-11-14T03:46:27.088Z,11.05
2022-11-14T03:48:53.958Z,11.60
2022-11-14T03:51:20.965Z,12.10
2022-11-14T03:53:47.798Z,10.30
2022-11-14T03:56:14.635Z,13.65
2022-11-14T03:58:41.471Z,10.63
2022-11-14T04:01:08.405Z,11.63
2022-11-14T04:03:35.349Z,11.18
2022-11-14T04:06:03.213Z,11.05
2022-11-14T04:08:30.495Z,12.32
2022-11-14T04:10:57.649Z,10.00
2022-11-14T04:13:24.464Z,10.10
2022-11-14T04:15:58.861Z,10.32
2022-11-14T04:18:26.489Z,10.23
2022-11-14T04:20:53.728Z,10.25
2022-11-14T04:23:20.695Z,9.80
2022-11-14T04:25:47.860Z,10.30
2022-11-14T04:28:14.909Z,10.20
2022-11-14T04:30:41.958Z,10.52
2022-11-14T04:33:08.811Z,10.73
2022-11-14T04:35:35.651Z,9.70
2022-11-14T04:38:02.941Z,10.77
2022-11-14T04:40:29.958Z,9.93
2022-11-14T04:42:56.796Z,12.68
2022-11-14T04:45:23.664Z,10.75
2022-11-14T04:47:50.513Z,9.85
2022-11-14T04:50:17.414Z,12.20
2022-11-14T04:52:44.523Z,11.10
2022-11-14T04:55:11.399Z,11.63
2022-11-14T04:57:38.194Z,10.30
2022-11-14T05:00:05.932Z,11.80
2022-11-14T05:02:33.044Z,12.15
2022-11-14T05:04:59.963Z,12.68
2022-11-14T05:07:26.865Z,16.60
2022-11-14T05:09:53.748Z,14.73
2022-11-14T05:12:20.577Z,12.60
2022-11-14T05:14:47.452Z,12.25
2022-11-14T05:17:14.236Z,13.95
2022-11-14T05:19:41.107Z,12.95
2022-11-14T05:22:07.915Z,12.73
2022-11-14T05:24:34.734Z,13.75
2022-11-14T05:27:01.533Z,13.30
2022-11-14T05:29:28.383Z,14.35
2022-11-14T05:31:55.173Z,13.07
2022-11-14T05:34:21.967Z,14.23
2022-11-14T05:36:48.772Z,14.88
2022-11-14T05:39:16.590Z,17.63
2022-11-14T05:41:43.418Z,18.42
2022-11-14T05:44:10.335Z,10.63
2022-11-14T05:46:37.149Z,15.55
2022-11-14T05:49:04.011Z,11.30
2022-11-14T05:51:30.798Z,12.45
2022-11-14T05:53:57.616Z,15.57
2022-11-14T05:56:24.494Z,12.85
2022-11-14T05:58:51.306Z,13.55
2022-11-14T06:01:19.886Z,13.70
2022-11-14T06:03:48.238Z,12.88
2022-11-14T06:06:19.212Z,11.98
2022-11-14T06:08:46.594Z,13.25
2022-11-14T06:11:16.486Z,11.15
2022-11-14T06:13:43.855Z,11.00
2022-11-14T06:16:16.383Z,10.57
2022-11-14T06:18:43.583Z,12.20
2022-11-14T06:21:21.884Z,10.55
2022-11-14T06:23:49.565Z,12.50
2022-11-14T06:26:24.918Z,10.30
2022-11-14T06:28:53.043Z,11.68
2022-11-14T06:31:20.945Z,9.60
2022-11-14T06:33:48.314Z,11.00
2022-11-14T06:36:15.448Z,10.93
2022-11-14T06:38:43.136Z,11.32
2022-11-14T06:41:13.779Z,10.52
2022-11-14T06:43:42.517Z,11.25
2022-11-14T06:46:12.561Z,10.82
2022-11-14T06:48:40.302Z,10.93
2022-11-14T06:51:07.545Z,11.57
2022-11-14T06:53:36.422Z,14.57
2022-11-14T06:56:12.283Z,11.27
2022-11-14T06:58:45.378Z,10.73
2022-11-14T07:01:23.384Z,10.15
2022-11-14T07:03:50.634Z,12.10
2022-11-14T07:06:21.090Z,10.85
2022-11-14T07:08:47.996Z,9.95
2022-11-14T07:11:23.278Z,9.93
2022-11-14T07:13:55.290Z,10.80
2022-11-14T07:16:25.919Z,11.13
2022-11-14T07:18:52.914Z,11.55
2022-11-14T07:21:19.727Z,13.20
2022-11-14T07:23:46.651Z,9.90
2022-11-14T07:26:13.528Z,11.40
2022-11-14T07:28:45.133Z,11.38
2022-11-14T07:31:16.985Z,10.25
2022-11-14T07:33:45.086Z,13.13
2022-11-14T07:36:13.196Z,13.25
2022-11-14T07:38:40.726Z,11.63
2022-11-14T07:41:11.022Z,11.85
2022-11-14T07:43:38.188Z,13.57
2022-11-14T07:46:14.627Z,13.52
2022-11-14T07:48:41.623Z,12.85
2022-11-14T07:51:14.351Z,11.43
2022-11-14T07:53:41.355Z,11.43
2022-11-14T07:56:13.056Z,10.63
2022-11-14T07:58:41.648Z,10.57
2022-11-14T08:01:11.270Z,10.48
2022-11-14T08:03:44.020Z,10.15
2022-11-14T08:06:14.994Z,11.43
2022-11-14T08:08:41.971Z,10.90
2022-11-14T08:11:09.057Z,10.63
2022-11-14T08:13:36.091Z,11.00
2022-11-14T08:16:13.744Z,9.88
2022-11-14T08:18:41.751Z,10.05
2022-11-14T08:21:08.886Z,10.30
2022-11-14T08:23:35.902Z,10.88
2022-11-14T08:26:02.742Z,10.27
2022-11-14T08:28:29.851Z,10.13
2022-11-14T08:31:04.721Z,10.70
2022-11-14T08:33:32.164Z,10.07
2022-11-14T08:36:17.083Z,9.85
2022-11-14T08:38:44.169Z,10.65
2022-11-14T08:41:11.208Z,10.30
2022-11-14T08:43:38.144Z,10.97
2022-11-14T08:46:05.768Z,10.70
2022-11-14T08:48:33.186Z,11.90
2022-11-14T08:51:06.879Z,10.77
2022-11-14T08:53:34.761Z,10.10
2022-11-14T08:56:01.973Z,10.27
2022-11-14T08:58:31.392Z,11.90
2022-11-14T09:01:07.290Z,12.43
2022-11-14T09:03:34.883Z,11.50
2022-11-14T09:06:02.666Z,12.27
2022-11-14T09:08:30.792Z,9.83
2022-11-14T09:11:05.378Z,10.40
2022-11-14T09:13:34.367Z,7.07
2022-11-14T09:16:01.538Z,7.30
2022-11-14T09:18:29.708Z,7.47
2022-11-14T09:21:01.385Z,7.83
2022-11-14T09:23:30.374Z,7.47
2022-11-14T09:25:57.723Z,7.70
2022-11-14T09:28:25.281Z,7.83
2022-11-14T09:30:52.098Z,7.80
2022-11-14T09:33:19.107Z,7.30
2022-11-14T09:35:46.060Z,8.03
2022-11-14T09:38:13.016Z,6.53
2022-11-14T09:41:01.488Z,8.40
2022-11-14T09:43:39.255Z,8.33
2022-11-14T09:46:20.403Z,8.57
2022-11-14T09:48:47.663Z,7.10
2022-11-14T09:51:22.290Z,8.93
2022-11-14T09:54:43.421Z,7.73
2022-11-14T09:57:17.529Z,8.03
2022-11-14T09:59:47.218Z,8.77
2022-11-14T10:02:24.801Z,8.70
2022-11-14T10:05:12.829Z,8.30
2022-11-14T10:08:00.196Z,8.97
2022-11-14T10:10:52.484Z,7.87
2022-11-14T10:13:57.108Z,7.40
2022-11-14T10:16:48.208Z,8.30
2022-11-14T10:19:40.015Z,8.40
2022-11-14T10:22:36.556Z,7.60
2022-11-14T10:25:24.324Z,7.73
2022-11-14T10:27:57.470Z,6.80
2022-11-14T10:30:43.879Z,7.20
2022-11-14T10:33:34.455Z,6.97
2022-11-14T10:36:31.645Z,7.60
2022-11-14T10:39:29.346Z,7.10
2022-11-14T10:42:06.214Z,5.93
2022-11-14T10:44:40.115Z,6.80
2022-11-14T10:47:16.411Z,6.40
2022-11-14T10:49:48.844Z,7.27
2022-11-14T10:52:28.069Z,6.40
2022-11-14T10:55:03.353Z,7.10
2022-11-14T10:57:30.714Z,5.90
2022-11-14T10:59:57.686Z,6.03
2022-11-14T11:02:24.668Z,7.30
2022-11-14T11:04:51.734Z,6.90
2022-11-14T11:07:45.990Z,7.97
2022-11-14T11:10:42.868Z,7.20
2022-11-14T11:13:15.930Z,6.97
2022-11-14T11:15:43.397Z,7.47
2022-11-14T11:18:30.067Z,8.13
2022-11-14T11:21:13.281Z,9.00
2022-11-14T11:23:53.415Z,9.13
2022-11-14T11:26:28.457Z,10.30
2022-11-14T11:29:19.698Z,9.93
2022-11-14T11:31:50.886Z,9.80
2022-11-14T11:34:33.089Z,9.27
2022-11-14T11:37:09.261Z,9.43
2022-11-14T11:39:51.047Z,9.37
2022-11-14T11:43:06.208Z,9.80
2022-11-14T11:45:18.707Z,9.33
2022-11-14T11:47:54.605Z,8.60
2022-11-14T11:50:24.242Z,8.30
2022-11-14T11:53:31.950Z,8.30
2022-11-14T11:56:25.073Z,7.80
2022-11-14T11:58:58.888Z,7.53
2022-11-14T12:01:25.748Z,7.70
2022-11-14T12:03:54.500Z,6.70
2022-11-14T12:06:27.621Z,6.60
2022-11-14T12:09:21.160Z,7.30
2022-11-14T12:11:57.352Z,6.80
2022-11-14T12:14:48.430Z,6.93
2022-11-14T12:17:31.004Z,5.73
2022-11-14T12:20:22.764Z,6.93
2022-11-14T12:23:23.683Z,6.67
2022-11-14T12:26:20.804Z,6.47
2022-11-14T12:28:59.512Z,6.27
2022-11-14T12:31:32.267Z,5.73
2022-11-14T12:34:27.674Z,7.13
2022-11-14T12:36:54.796Z,6.30
2022-11-14T12:39:27.314Z,5.63
2022-11-14T12:42:09.909Z,5.97
2022-11-14T12:44:40.744Z,5.70
2022-11-14T12:47:07.810Z,5.10
2022-11-14T12:49:38.603Z,5.17
2022-11-14T12:52:25.448Z,5.17
2022-11-14T12:54:52.263Z,4.63
2022-11-14T12:57:47.633Z,5.30
2022-11-14T13:00:15.988Z,5.00
2022-11-14T13:03:27.721Z,4.70
2022-11-14T13:06:09.132Z,4.90
2022-11-14T13:09:07.428Z,5.07
2022-11-14T13:12:00.676Z,5.57
2022-11-14T13:14:47.361Z,5.03
2022-11-14T13:17:35.988Z,5.57
2022-11-14T13:20:43.313Z,6.00
2022-11-14T13:23:33.439Z,6.17
2022-11-14T13:26:13.706Z,6.93
2022-11-14T13:28:45.084Z,5.90
2022-11-14T13:31:20.512Z,6.73
2022-11-14T13:34:00.682Z,7.13
2022-11-14T13:36:54.310Z,6.63
2022-11-14T13:39:38.322Z,6.00
2022-11-14T13:42:32.924Z,7.20
2022-11-14T13:45:08.601Z,6.70
2022-11-14T13:48:03.547Z,6.67
2022-11-14T13:50:36.940Z,7.00
2022-11-14T13:53:13.694Z,7.40
2022-11-14T13:55:56.012Z,6.30
2022-11-14T13:58:32.121Z,7.03
2022-11-14T14:01:20.561Z,6.13
2022-11-14T14:04:09.545Z,7.60
2022-11-14T14:06:48.361Z,7.20
2022-11-14T14:09:41.014Z,7.77
2022-11-14T14:12:07.846Z,7.33
2022-11-14T14:14:56.395Z,6.37
2022-11-14T14:17:31.833Z,6.40
2022-11-14T14:20:05.569Z,6.73
2022-11-14T14:22:58.553Z,6.40
2022-11-14T14:26:19.606Z,6.40
2022-11-14T14:29:06.234Z,6.60
2022-11-14T14:31:37.893Z,6.77
2022-11-14T14:34:31.548Z,7.50
2022-11-14T14:36:58.909Z,9.50
2022-11-14T14:39:27.767Z,8.77
2022-11-14T14:41:57.458Z,9.00
2022-11-14T14:44:31.660Z,9.30
2022-11-14T14:46:59.130Z,9.23
2022-11-14T14:49:28.177Z,9.00
2022-11-14T14:51:58.555Z,9.13
2022-11-14T14:54:29.554Z,9.00
2022-11-14T14:57:00.559Z,8.73
2022-11-14T14:59:29.661Z,9.10
2022-11-14T15:01:57.981Z,8.23
2022-11-14T15:04:29.926Z,8.93
2022-11-14T15:06:58.301Z,9.70
2022-11-14T15:09:27.946Z,8.73
2022-11-14T15:11:59.028Z,9.77
2022-11-14T15:14:35.696Z,9.23
2022-11-14T15:17:04.698Z,9.13
2022-11-14T15:19:40.918Z,8.40
2022-11-14T15:22:17.853Z,9.20
2022-11-14T15:25:02.767Z,8.40
2022-11-14T15:27:31.058Z,8.80
2022-11-14T15:30:01.435Z,10.50
2022-11-14T15:32:28.418Z,8.87
2022-11-14T15:35:24.910Z,8.27
2022-11-14T15:38:28.746Z,10.23
2022-11-14T15:41:22.755Z,9.80
2022-11-14T15:43:53.029Z,9.10
2022-11-14T15:46:35.655Z,10.30
2022-11-14T15:49:14.667Z,10.13
2022-11-14T15:52:17.181Z,10.93
2022-11-14T15:54:44.007Z,10.60
2022-11-14T15:57:16.763Z,11.00
2022-11-14T15:59:44.034Z,11.70
2022-11-14T16:02:46.421Z,10.70
2022-11-14T16:05:15.254Z,10.40
2022-11-14T16:07:42.381Z,11.80
2022-11-14T16:10:15.555Z,12.25
2022-11-14T16:12:42.511Z,11.60
2022-11-14T16:15:09.774Z,11.80
2022-11-14T16:17:38.813Z,11.98
2022-11-14T16:20:07.797Z,11.50
2022-11-14T16:22:34.616Z,12.15
2022-11-14T16:25:01.477Z,11.85
2022-11-14T16:27:28.339Z,11.70
2022-11-14T16:29:55.149Z,11.63
2022-11-14T16:32:23.436Z,11.65
2022-11-14T16:34:50.221Z,10.38
2022-11-14T16:37:17.009Z,11.23
2022-11-14T16:39:43.848Z,11.20
2022-11-14T16:42:11.603Z,10.18
2022-11-14T16:44:42.012Z,10.68
2022-11-14T16:47:14.771Z,10.45
2022-11-14T16:49:41.576Z,9.57
2022-11-14T16:52:10.932Z,10.02
2022-11-14T16:54:37.783Z,10.38
2022-11-14T16:57:04.577Z,10.80
2022-11-14T16:59:32.138Z,10.40
2022-11-14T17:01:59.013Z,10.60
2022-11-14T17:04:25.872Z,10.38
2022-11-14T17:06:52.787Z,9.52
2022-11-14T17:09:19.670Z,10.70
2022-11-14T17:11:46.525Z,9.70
2022-11-14T17:14:13.377Z,10.68
2022-11-14T17:16:40.198Z,11.35
2022-11-14T17:19:07.870Z,10.35
2022-11-14T17:21:34.718Z,10.70
2022-11-14T17:24:01.693Z,10.05
2022-11-14T17:26:29.204Z,10.55
2022-11-14T17:28:56.236Z,9.77
2022-11-14T17:31:23.323Z,10.05
2022-11-14T17:33:59.432Z,10.02
2022-11-14T17:36:28.424Z,9.20
2022-11-14T17:38:56.532Z,9.23
2022-11-14T17:41:23.887Z,10.10
2022-11-14T17:43:56.610Z,9.95
2022-11-14T17:46:23.472Z,9.05
2022-11-14T17:48:50.337Z,9.15
2022-11-14T17:51:17.310Z,9.07
2022-11-14T17:53:44.155Z,10.07
2022-11-14T17:56:20.365Z,8.90
2022-11-14T17:58:48.646Z,8.60
2022-11-14T18:01:18.053Z,8.75
2022-11-14T18:03:45.075Z,9.50
2022-11-14T18:06:14.746Z,9.68
2022-11-14T18:08:41.861Z,9.25
2022-11-14T18:11:11.530Z,9.20
2022-11-14T18:13:39.169Z,8.77
2022-11-14T18:16:17.927Z,8.90
2022-11-14T18:18:45.455Z,8.80
2022-11-14T18:21:18.838Z,8.60
2022-11-14T18:23:51.308Z,7.80
2022-11-14T18:26:19.406Z,8.60
2022-11-14T18:28:46.222Z,8.05
2022-11-14T18:31:13.945Z,8.20
2022-11-14T18:33:41.631Z,7.95
2022-11-14T18:36:11.847Z,7.75
2022-11-14T18:38:39.665Z,7.80
2022-11-14T18:41:13.698Z,7.97
2022-11-14T18:43:41.172Z,8.38
2022-11-14T18:46:10.985Z,7.90
2022-11-14T18:48:39.883Z,7.50
2022-11-14T18:51:10.851Z,8.30
2022-11-14T18:53:37.945Z,8.43
2022-11-14T18:56:16.127Z,7.57
2022-11-14T18:58:44.343Z,7.88
2022-11-14T19:01:16.743Z,8.20
2022-11-14T19:03:43.867Z,8.57
2022-11-14T19:06:13.088Z,8.68
2022-11-14T19:08:41.137Z,8.07
2022-11-14T19:11:33.751Z,8.10
2022-11-14T19:14:06.314Z,8.10
2022-11-14T19:16:34.612Z,8.48
2022-11-14T19:19:02.243Z,9.63
2022-11-14T19:21:29.529Z,9.13
2022-11-14T19:23:57.376Z,8.85
2022-11-14T19:26:24.189Z,8.75
2022-11-14T19:28:51.459Z,9.07
2022-11-14T19:31:19.623Z,9.20
2022-11-14T19:33:46.539Z,9.38
2022-11-14T19:36:52.812Z,8.80
2022-11-14T19:39:08.463Z,8.32
2022-11-14T19:41:35.343Z,8.20
2022-11-14T19:44:02.812Z,8.10
2022-11-14T19:46:30.235Z,8.70
2022-11-14T19:49:00.914Z,8.07
2022-11-14T19:51:29.649Z,7.70
2022-11-14T19:53:58.283Z,7.53
2022-11-14T19:56:25.847Z,8.70
2022-11-14T19:58:55.380Z,7.72
2022-11-14T20:01:27.432Z,8.70
2022-11-14T20:03:59.667Z,8.25
2022-11-14T20:06:30.063Z,8.05
2022-11-14T20:08:58.170Z,9.25
2022-11-14T20:11:28.088Z,8.43
2022-11-14T20:13:56.038Z,8.52
2022-11-14T20:16:28.288Z,9.50
2022-11-14T20:18:59.088Z,9.95
2022-11-14T20:21:28.816Z,11.05
2022-11-14T20:23:55.988Z,10.10
2022-11-14T20:26:23.708Z,12.10
2022-11-14T20:28:52.913Z,12.65
2022-11-14T20:31:25.458Z,14.90
2022-11-14T20:33:53.662Z,14.95
2022-11-14T20:36:23.951Z,14.93
2022-11-14T20:38:52.085Z,15.93
2022-11-14T20:41:19.306Z,16.63
2022-11-14T20:43:46.245Z,18.30
2022-11-14T20:46:16.118Z,18.20
2022-11-14T20:48:43.684Z,17.20
2022-11-14T20:51:17.765Z,18.33
2022-11-14T20:53:44.932Z,20.50
2022-11-14T20:56:13.227Z,17.48
2022-11-14T20:58:41.683Z,18.10
2022-11-14T21:01:08.718Z,18.45
2022-11-14T21:03:36.125Z,17.67
2022-11-14T21:06:04.135Z,18.00
2022-11-14T21:08:33.392Z,18.85
2022-11-14T21:11:03.562Z,18.80
2022-11-14T21:13:48.958Z,18.13
2022-11-14T21:16:19.179Z,17.50
2022-11-14T21:18:48.317Z,18.05
2022-11-14T21:21:19.862Z,17.30
2022-11-14T21:23:47.560Z,18.67
2022-11-14T21:26:16.889Z,17.63
2022-11-14T21:28:46.120Z,17.38
2022-11-14T21:31:50.966Z,15.40
2022-11-14T21:34:18.582Z,13.95
2022-11-14T21:36:46.938Z,14.05
2022-11-14T21:39:16.312Z,14.40
2022-11-14T21:41:45.199Z,13.32
2022-11-14T21:44:14.513Z,13.65
2022-11-14T21:46:41.890Z,13.20
2022-11-14T21:49:09.517Z,12.82
2022-11-14T21:51:36.320Z,12.50
2022-11-14T21:54:03.262Z,12.32
2022-11-14T21:56:32.206Z,12.60
2022-11-14T21:59:12.915Z,12.13
2022-11-14T22:02:06.549Z,11.00
2022-11-14T22:04:33.893Z,11.65
2022-11-14T22:07:08.588Z,10.70
2022-11-14T22:09:36.395Z,9.27
2022-11-14T22:12:05.899Z,11.15
2022-11-14T22:14:32.720Z,9.93
2022-11-14T22:16:59.843Z,8.88
2022-11-14T22:19:26.668Z,9.05
2022-11-14T22:21:54.266Z,10.35
2022-11-14T22:24:21.175Z,8.75
2022-11-14T22:26:48.001Z,8.02
2022-11-14T22:29:14.988Z,7.00
2022-11-14T22:31:41.775Z,8.13
2022-11-14T22:34:08.665Z,7.22
2022-11-14T22:36:35.924Z,8.48
2022-11-14T22:39:03.038Z,9.93
2022-11-14T22:41:33.408Z,10.13
2022-11-14T22:44:01.558Z,10.75
2022-11-14T22:46:28.779Z,10.38
2022-11-14T22:48:56.243Z,10.32
2022-11-14T22:51:25.344Z,9.32
2022-11-14T22:53:57.231Z,9.13
2022-11-14T22:56:28.614Z,9.10
2022-11-14T22:58:56.580Z,7.60
2022-11-14T23:01:25.602Z,8.85
2022-11-14T23:04:04.350Z,9.20
2022-11-14T23:06:33.236Z,9.95
2022-11-14T23:09:01.082Z,10.02
2022-11-14T23:11:30.294Z,8.15
2022-11-14T23:13:59.392Z,8.20
2022-11-14T23:16:28.955Z,8.60
2022-11-14T23:18:58.742Z,7.97
2022-11-14T23:21:28.116Z,7.85
2022-11-14T23:24:00.285Z,7.70
2022-11-14T23:26:28.604Z,7.40
2022-11-14T23:28:55.793Z,7.47
2022-11-14T23:31:23.490Z,7.35
2022-11-14T23:33:52.619Z,7.47
2022-11-14T23:36:20.022Z,7.50
2022-11-14T23:38:46.956Z,7.80
2022-11-14T23:41:19.267Z,7.35
2022-11-14T23:43:46.953Z,6.60
2022-11-14T23:46:14.788Z,7.07
2022-11-14T23:48:41.763Z,6.93
2022-11-14T23:51:09.627Z,6.57
2022-11-14T23:53:36.508Z,6.50
2022-11-14T23:56:03.823Z,7.32
2022-11-14T23:58:30.853Z,7.60
